UAL1050 KORD-KDTW
Flight info
| Callsign | UAL1050 |
|---|---|
| Flight time | N/A |
| Altitude | 33000 |
| Route | RAYNR BRTMN TAAYZ PORZL RKCTY2 |
| Aircraft | A320/M-SDE3FGHIRWY/LB1 |
Departure
| Time | 2026-05-01 12:00 |
|---|---|
| Airport | Chicago O'Hare International Airport (KORD) |
Arrival
| Time | N/A |
|---|---|
| Airport | Detroit Metropolitan Wayne County Airport (KDTW) |
| Time | Latitude | Longitude | Altitude | Speed | Heading |
|---|---|---|---|---|---|
| 2026-05-01 11:22 | 41.97684 | -87.89936 | 669 ft | 0 kts | 347° |
| 2026-05-01 11:25 | 41.97681 | -87.89936 | 669 ft | 0 kts | 347° |
| 2026-05-01 11:42 | 41.97667 | -87.89931 | 666 ft | 4 kts | 345° |
| 2026-05-01 11:42 | 41.97641 | -87.89921 | 667 ft | 4 kts | 338° |
| 2026-05-01 11:43 | 41.97617 | -87.89905 | 667 ft | 4 kts | 322° |
| 2026-05-01 11:43 | 41.97601 | -87.89879 | 667 ft | 4 kts | 278° |
| 2026-05-01 11:43 | 41.97601 | -87.89848 | 666 ft | 4 kts | 232° |
| 2026-05-01 11:44 | 41.97629 | -87.89868 | 667 ft | 4 kts | 110° |
| 2026-05-01 11:44 | 41.97634 | -87.89886 | 667 ft | 0 kts | 110° |
| 2026-05-01 11:47 | 41.97631 | -87.89875 | 667 ft | 2 kts | 108° |
| 2026-05-01 11:47 | 41.97624 | -87.89842 | 667 ft | 5 kts | 108° |
| 2026-05-01 11:47 | 41.97610 | -87.89785 | 669 ft | 8 kts | 108° |
| 2026-05-01 11:47 | 41.97591 | -87.89703 | 667 ft | 11 kts | 108° |
| 2026-05-01 11:48 | 41.97563 | -87.89598 | 669 ft | 13 kts | 126° |
| 2026-05-01 11:48 | 41.97533 | -87.89544 | 669 ft | 6 kts | 134° |
| 2026-05-01 11:48 | 41.97492 | -87.89502 | 668 ft | 9 kts | 133° |
| 2026-05-01 11:48 | 41.97444 | -87.89436 | 669 ft | 11 kts | 148° |
| 2026-05-01 11:49 | 41.97358 | -87.89424 | 669 ft | 14 kts | 180° |
| 2026-05-01 11:49 | 41.97278 | -87.89500 | 669 ft | 16 kts | 235° |
| 2026-05-01 11:49 | 41.97223 | -87.89640 | 669 ft | 18 kts | 244° |
| 2026-05-01 11:49 | 41.97162 | -87.89799 | 669 ft | 20 kts | 239° |
| 2026-05-01 11:50 | 41.97134 | -87.89987 | 669 ft | 22 kts | 266° |
| 2026-05-01 11:50 | 41.97136 | -87.90201 | 669 ft | 24 kts | 272° |
| 2026-05-01 11:50 | 41.97139 | -87.90431 | 669 ft | 26 kts | 269° |
| 2026-05-01 11:50 | 41.97156 | -87.90681 | 669 ft | 28 kts | 279° |
| 2026-05-01 11:51 | 41.97258 | -87.90903 | 669 ft | 29 kts | 314° |
| 2026-05-01 11:51 | 41.97375 | -87.91056 | 669 ft | 0 kts | 320° |
| 2026-05-01 11:51 | 41.97378 | -87.91060 | 669 ft | 2 kts | 319° |
| 2026-05-01 11:52 | 41.97396 | -87.91075 | 669 ft | 4 kts | 328° |
| 2026-05-01 11:52 | 41.97427 | -87.91107 | 668 ft | 7 kts | 319° |
| 2026-05-01 11:52 | 41.97470 | -87.91161 | 669 ft | 10 kts | 315° |
| 2026-05-01 11:52 | 41.97527 | -87.91234 | 669 ft | 13 kts | 319° |
| 2026-05-01 11:53 | 41.97606 | -87.91312 | 668 ft | 15 kts | 323° |
| 2026-05-01 11:53 | 41.97695 | -87.91412 | 669 ft | 18 kts | 319° |
| 2026-05-01 11:53 | 41.97765 | -87.91493 | 669 ft | 0 kts | 320° |
| 2026-05-01 11:56 | 41.97766 | -87.91493 | 667 ft | 1 kts | 320° |
| 2026-05-01 11:56 | 41.97776 | -87.91505 | 668 ft | 3 kts | 320° |
| 2026-05-01 11:56 | 41.97800 | -87.91533 | 669 ft | 6 kts | 319° |
| 2026-05-01 11:56 | 41.97839 | -87.91578 | 668 ft | 9 kts | 319° |
| 2026-05-01 11:57 | 41.97892 | -87.91641 | 669 ft | 12 kts | 319° |
| 2026-05-01 11:57 | 41.97960 | -87.91721 | 669 ft | 14 kts | 318° |
| 2026-05-01 11:57 | 41.98045 | -87.91812 | 669 ft | 17 kts | 333° |
| 2026-05-01 11:57 | 41.98120 | -87.91828 | 669 ft | 2 kts | 0° |
| 2026-05-01 11:58 | 41.98139 | -87.91820 | 669 ft | 4 kts | 31° |
| 2026-05-01 11:58 | 41.98159 | -87.91782 | 667 ft | 6 kts | 72° |
| 2026-05-01 11:58 | 41.98169 | -87.91616 | 669 ft | 12 kts | 87° |
| 2026-05-01 11:59 | 41.98168 | -87.91495 | 670 ft | 14 kts | 94° |
| 2026-05-01 11:59 | 41.98182 | -87.91372 | 671 ft | 12 kts | 27° |
| 2026-05-01 11:59 | 41.98322 | -87.91235 | 669 ft | 59 kts | 39° |
| 2026-05-01 12:00 | 41.99569 | -87.89843 | 834 ft | 149 kts | 38° |
| 2026-05-01 12:00 | 42.00432 | -87.89070 | 1377 ft | 151 kts | 13° |
| 2026-05-01 12:00 | 42.02509 | -87.88877 | 2474 ft | 152 kts | 9° |
| 2026-05-01 12:01 | 42.03621 | -87.88630 | 2728 ft | 172 kts | 9° |
| 2026-05-01 12:01 | 42.04884 | -87.88355 | 2932 ft | 196 kts | 9° |
| 2026-05-01 12:01 | 42.06315 | -87.88046 | 3165 ft | 221 kts | 9° |
| 2026-05-01 12:01 | 42.07915 | -87.87696 | 3528 ft | 245 kts | 9° |
| 2026-05-01 12:02 | 42.09648 | -87.87318 | 4159 ft | 257 kts | 9° |
| 2026-05-01 12:02 | 42.11428 | -87.86929 | 4999 ft | 261 kts | 9° |
| 2026-05-01 12:02 | 42.13232 | -87.86535 | 5844 ft | 264 kts | 9° |
| 2026-05-01 12:02 | 42.15062 | -87.86132 | 6677 ft | 268 kts | 9° |
| 2026-05-01 12:03 | 42.16888 | -87.85728 | 7479 ft | 271 kts | 9° |
| 2026-05-01 12:03 | 42.18759 | -87.85316 | 8276 ft | 274 kts | 9° |
| 2026-05-01 12:03 | 42.20652 | -87.84902 | 9047 ft | 277 kts | 9° |
| 2026-05-01 12:03 | 42.22573 | -87.84480 | 9805 ft | 281 kts | 9° |
| 2026-05-01 12:04 | 42.24537 | -87.84047 | 10290 ft | 295 kts | 9° |
| 2026-05-01 12:04 | 42.26646 | -87.83581 | 10477 ft | 318 kts | 9° |
| 2026-05-01 12:04 | 42.28906 | -87.83080 | 10725 ft | 337 kts | 9° |
| 2026-05-01 12:04 | 42.31241 | -87.82566 | 11306 ft | 343 kts | 8° |
| 2026-05-01 12:05 | 42.33617 | -87.82150 | 11953 ft | 346 kts | 6° |
| 2026-05-01 12:05 | 42.38464 | -87.81554 | 13226 ft | 353 kts | 5° |
| 2026-05-01 12:05 | 42.40921 | -87.81287 | 13832 ft | 356 kts | 5° |
| 2026-05-01 12:06 | 42.43378 | -87.80815 | 14418 ft | 359 kts | 16° |
| 2026-05-01 12:06 | 42.45639 | -87.79374 | 14979 ft | 362 kts | 36° |
| 2026-05-01 12:06 | 42.47425 | -87.76967 | 15528 ft | 365 kts | 55° |
| 2026-05-01 12:06 | 42.48530 | -87.73871 | 16072 ft | 368 kts | 71° |
| 2026-05-01 12:07 | 42.49330 | -87.70560 | 16628 ft | 371 kts | 72° |
| 2026-05-01 12:07 | 42.50128 | -87.67223 | 17183 ft | 374 kts | 72° |
| 2026-05-01 12:07 | 42.50932 | -87.63857 | 17732 ft | 377 kts | 72° |
| 2026-05-01 12:07 | 42.51743 | -87.60458 | 18272 ft | 380 kts | 72° |
| 2026-05-01 12:08 | 42.52561 | -87.57037 | 18831 ft | 383 kts | 72° |
| 2026-05-01 12:08 | 42.53386 | -87.53589 | 19381 ft | 386 kts | 72° |
| 2026-05-01 12:08 | 42.54218 | -87.50109 | 19930 ft | 389 kts | 72° |
| 2026-05-01 12:08 | 42.55056 | -87.46601 | 20464 ft | 392 kts | 72° |
| 2026-05-01 12:09 | 42.55887 | -87.43115 | 20960 ft | 395 kts | 72° |
| 2026-05-01 12:09 | 42.56743 | -87.39510 | 21446 ft | 398 kts | 72° |
| 2026-05-01 12:09 | 42.57598 | -87.35925 | 21905 ft | 401 kts | 72° |
| 2026-05-01 12:09 | 42.58447 | -87.32362 | 22343 ft | 403 kts | 72° |
| 2026-05-01 12:10 | 42.59310 | -87.28731 | 22763 ft | 406 kts | 72° |
| 2026-05-01 12:10 | 42.61045 | -87.21395 | 23561 ft | 411 kts | 72° |
| 2026-05-01 12:10 | 42.61166 | -87.20881 | 23616 ft | 411 kts | 72° |